Time;durP1;ratioP1;P1;durP2;ratioP2;P2;SDS_P1;SDS_P2;PMS_P1;PMS_P2;Temp;Humidity;BMP_temperature;BMP_pressure;BME280_temperature;BME280_humidity;BME280_pressure;Samples;Min_cycle;Max_cycle;Signal;HPM_P1;HPM_P2
2022/04/30 00:02:07;;;;;;;18.77;11.95;;;15.60;99.90;;;;;;5111033;28;20020;-73
2022/04/30 00:04:37;;;;;;;15.05;11.73;;;15.70;99.90;;;;;;5110237;28;20027;-73
2022/04/30 00:07:03;;;;;;;16.85;11.60;;;15.80;99.90;;;;;;5112147;28;20035;-73
2022/04/30 00:09:30;;;;;;;17.13;10.98;;;15.70;99.90;;;;;;5110096;28;20102;-73
2022/04/30 00:11:57;;;;;;;14.73;11.25;;;15.80;99.90;;;;;;5110428;28;20034;-73
2022/04/30 00:14:23;;;;;;;14.15;10.95;;;15.80;99.90;;;;;;5109922;27;20031;-73
2022/04/30 00:16:49;;;;;;;17.30;10.68;;;15.80;99.90;;;;;;5111968;28;20090;-73
2022/04/30 00:19:15;;;;;;;15.98;11.45;;;15.80;99.90;;;;;;5111579;28;20063;-73
2022/04/30 00:21:41;;;;;;;17.33;10.85;;;15.60;99.90;;;;;;5110125;28;20034;-73
2022/04/30 00:24:07;;;;;;;15.07;11.02;;;15.70;99.90;;;;;;5109751;28;20490;-73
2022/04/30 00:26:33;;;;;;;15.43;10.07;;;15.70;99.90;;;;;;5111521;28;20028;-73
2022/04/30 00:29:00;;;;;;;16.90;10.30;;;15.70;99.90;;;;;;5110796;28;20036;-74
2022/04/30 00:31:26;;;;;;;14.98;9.68;;;15.70;99.90;;;;;;5111991;28;20394;-73
2022/04/30 00:33:53;;;;;;;13.40;10.05;;;15.80;99.90;;;;;;5109593;28;20394;-74
2022/04/30 00:36:19;;;;;;;13.52;8.77;;;15.70;99.90;;;;;;5109493;28;20015;-73
2022/04/30 00:38:44;;;;;;;12.88;8.65;;;15.80;99.90;;;;;;5109426;28;20024;-73
2022/04/30 00:41:10;;;;;;;17.38;10.18;;;15.80;99.90;;;;;;5109766;28;20380;-73
2022/04/30 00:43:47;;;;;;;13.38;9.48;;;15.70;99.90;;;;;;5112950;28;20027;-73
2022/04/30 00:46:14;;;;;;;13.15;9.63;;;15.70;99.90;;;;;;5111980;28;20031;-73
2022/04/30 00:48:41;;;;;;;13.85;9.43;;;15.70;99.90;;;;;;5109310;28;20092;-73
2022/04/30 00:51:10;;;;;;;15.68;9.98;;;15.80;99.90;;;;;;5109571;28;20039;-72
2022/04/30 00:53:43;;;;;;;16.55;10.40;;;15.60;99.90;;;;;;5109325;28;20008;-73
2022/04/30 00:56:12;;;;;;;16.85;10.05;;;15.50;99.90;;;;;;5093767;28;20074;-73
2022/04/30 00:58:41;;;;;;;18.25;11.00;;;15.30;99.90;;;;;;5112611;28;20024;-73
2022/04/30 01:01:07;;;;;;;18.95;10.98;;;15.10;99.90;;;;;;5109633;28;20031;-73
2022/04/30 01:03:32;;;;;;;17.10;10.35;;;15.10;99.90;;;;;;5108484;28;20038;-73
2022/04/30 01:06:01;;;;;;;17.58;10.13;;;15.10;99.90;;;;;;5107800;28;20024;-74
2022/04/30 01:08:28;;;;;;;16.10;9.85;;;15.20;99.90;;;;;;5109336;28;20028;-73
2022/04/30 01:11:01;;;;;;;15.15;10.00;;;15.20;99.90;;;;;;5110821;28;20110;-73
2022/04/30 01:13:34;;;;;;;12.25;8.52;;;15.30;99.90;;;;;;5111590;28;20063;-73
2022/04/30 01:16:06;;;;;;;11.25;7.35;;;15.40;99.90;;;;;;5108595;28;20072;-73
2022/04/30 01:18:37;;;;;;;8.60;6.28;;;15.50;99.90;;;;;;5108953;28;20043;-73
2022/04/30 01:21:13;;;;;;;8.93;6.22;;;15.60;99.90;;;;;;5108435;28;20134;-74
2022/04/30 01:23:42;;;;;;;8.77;5.68;;;15.70;99.90;;;;;;5108692;28;20036;-73
2022/04/30 01:26:09;;;;;;;8.20;5.00;;;15.80;99.90;;;;;;5093473;28;20394;-73
2022/04/30 01:28:38;;;;;;;8.68;4.90;;;15.80;99.90;;;;;;5112443;28;20106;-73
2022/04/30 01:37:22;;;;;;;9.88;4.95;;;15.80;99.90;;;;;;5110377;28;20035;-73
2022/04/30 01:39:17;;;;;;;;;;;15.90;99.90;;;;;;5109505;28;20054;-73
2022/04/30 01:41:43;;;;;;;7.00;4.40;;;15.90;99.90;;;;;;5108566;28;19994;-73
2022/04/30 01:44:09;;;;;;;8.50;5.10;;;15.90;99.90;;;;;;5108125;28;20522;-72
2022/04/30 01:46:36;;;;;;;9.48;6.97;;;15.90;99.90;;;;;;5112328;28;20098;-73
2022/04/30 01:49:03;;;;;;;13.27;9.00;;;15.60;99.90;;;;;;5108819;28;20035;-73
2022/04/30 01:51:29;;;;;;;10.60;6.32;;;15.20;99.90;;;;;;5108324;28;20027;-73
2022/04/30 01:53:55;;;;;;;10.18;6.35;;;15.10;99.90;;;;;;5108162;28;20111;-73
2022/04/30 01:56:21;;;;;;;9.70;6.13;;;15.30;99.90;;;;;;5108126;28;20032;-73
2022/04/30 01:58:47;;;;;;;9.15;6.50;;;15.40;99.90;;;;;;5110241;28;20097;-73
2022/04/30 02:01:14;;;;;;;12.82;8.10;;;15.40;99.90;;;;;;5109765;28;20555;-73
2022/04/30 02:03:40;;;;;;;12.25;7.93;;;15.30;99.90;;;;;;5108500;28;20031;-73
2022/04/30 02:06:06;;;;;;;11.55;8.20;;;15.20;99.90;;;;;;5107632;28;20023;-73
2022/04/30 02:08:33;;;;;;;10.52;8.07;;;15.10;99.90;;;;;;5108654;28;20024;-73
2022/04/30 02:10:59;;;;;;;10.07;7.82;;;15.00;99.90;;;;;;5109206;28;20418;-72
2022/04/30 02:13:26;;;;;;;13.13;7.50;;;15.00;99.90;;;;;;5110168;28;20012;-73
2022/04/30 02:15:53;;;;;;;11.55;7.85;;;15.00;99.90;;;;;;5108627;28;20032;-73
2022/04/30 02:18:20;;;;;;;10.45;7.47;;;15.10;99.90;;;;;;5112786;28;20490;-73
2022/04/30 02:20:49;;;;;;;12.95;7.97;;;15.10;99.90;;;;;;5111910;28;20067;-73
2022/04/30 02:23:15;;;;;;;9.98;7.10;;;15.10;99.90;;;;;;5112657;28;20027;-73
2022/04/30 02:25:42;;;;;;;11.07;7.10;;;15.20;99.90;;;;;;5114699;27;20114;-73
2022/04/30 02:28:08;;;;;;;8.93;5.85;;;15.20;99.90;;;;;;5112581;28;20451;-73
2022/04/30 02:30:37;;;;;;;8.63;5.20;;;15.30;99.90;;;;;;5112009;28;20085;-73
2022/04/30 02:33:11;;;;;;;7.18;4.32;;;15.40;99.90;;;;;;5112316;28;20027;-73
2022/04/30 02:35:39;;;;;;;7.38;4.22;;;15.60;99.90;;;;;;5111928;28;20035;-73
2022/04/30 02:38:08;;;;;;;7.40;4.05;;;15.80;99.90;;;;;;5094747;28;20020;-73
2022/04/30 02:40:35;;;;;;;7.30;4.03;;;15.90;99.90;;;;;;5111431;28;20073;-73
2022/04/30 02:43:08;;;;;;;6.38;3.85;;;16.00;99.90;;;;;;5111616;28;20452;-73
2022/04/30 02:45:36;;;;;;;9.45;4.47;;;16.10;99.90;;;;;;5111749;28;20023;-73
2022/04/30 02:48:03;;;;;;;9.75;4.25;;;16.10;99.90;;;;;;5111662;28;20118;-73
2022/04/30 02:50:30;;;;;;;9.23;4.30;;;16.20;99.90;;;;;;5112165;28;20098;-73
2022/04/30 02:52:56;;;;;;;6.22;3.90;;;16.20;99.90;;;;;;5112676;28;20935;-73
2022/04/30 02:55:23;;;;;;;8.85;4.10;;;16.30;99.90;;;;;;5114132;28;20024;-73
2022/04/30 03:00:47;;;;;;;10.73;4.53;;;16.30;99.90;;;;;;5111598;28;20064;-73
2022/04/30 03:03:14;;;;;;;7.00;3.80;;;16.30;99.90;;;;;;5112104;28;20053;-73
2022/04/30 03:05:43;;;;;;;10.63;4.00;;;16.30;99.90;;;;;;5111345;28;20028;-73
2022/04/30 03:08:14;;;;;;;11.85;4.60;;;16.40;99.90;;;;;;5111554;28;20073;-73
2022/04/30 03:10:41;;;;;;;13.85;4.43;;;16.40;99.90;;;;;;5114259;28;20102;-73
2022/04/30 03:13:07;;;;;;;10.00;4.50;;;16.40;99.90;;;;;;5112114;28;20069;-73
2022/04/30 03:15:34;;;;;;;9.63;4.13;;;16.40;99.90;;;;;;5110978;28;20063;-73
2022/04/30 03:23:29;;;;;;;14.00;4.63;;;16.50;99.90;;;;;;5110208;28;20205;-73
2022/04/30 03:25:55;;;;;;;12.85;4.38;;;16.50;99.90;;;;;;5111238;28;20530;-73
2022/04/30 03:28:20;;;;;;;10.05;4.18;;;16.60;99.90;;;;;;5111083;28;20027;-73
2022/04/30 03:30:46;;;;;;;14.20;3.92;;;16.60;99.90;;;;;;5109584;28;20030;-73
2022/04/30 03:33:12;;;;;;;11.80;4.00;;;16.60;99.90;;;;;;5109970;28;20444;-73
2022/04/30 03:35:42;;;;;;;12.75;4.22;;;16.60;99.90;;;;;;5109895;28;20061;-73
2022/04/30 03:38:09;;;;;;;10.82;3.90;;;16.70;99.90;;;;;;5094031;28;20460;-73
2022/04/30 03:40:35;;;;;;;11.73;4.18;;;16.70;99.90;;;;;;5108815;28;20382;-73
2022/04/30 03:43:01;;;;;;;10.85;4.18;;;16.60;99.90;;;;;;5109438;28;20050;-73
2022/04/30 03:45:28;;;;;;;13.35;4.10;;;16.50;99.90;;;;;;5109779;28;20055;-73
2022/04/30 03:47:54;;;;;;;14.73;3.90;;;16.40;99.90;;;;;;5109765;28;20024;-73
2022/04/30 03:50:20;;;;;;;14.15;4.47;;;16.40;99.90;;;;;;5109481;28;20085;-73
2022/04/30 03:52:45;;;;;;;13.18;4.30;;;16.40;99.90;;;;;;5111760;28;20027;-73
2022/04/30 03:55:14;;;;;;;11.13;3.88;;;16.40;99.90;;;;;;5108968;28;20068;-73
2022/04/30 03:57:40;;;;;;;17.95;5.22;;;16.30;99.90;;;;;;5109285;28;20043;-73
2022/04/30 04:00:07;;;;;;;15.10;4.45;;;16.30;99.90;;;;;;5109107;28;20529;-74
2022/04/30 04:02:33;;;;;;;13.32;4.07;;;16.20;99.90;;;;;;5109586;28;20028;-73
2022/04/30 04:04:59;;;;;;;12.18;4.25;;;16.20;99.90;;;;;;5110535;28;20524;-73
2022/04/30 04:07:26;;;;;;;11.25;4.00;;;16.30;99.90;;;;;;5111656;28;20111;-73
2022/04/30 04:09:52;;;;;;;15.93;4.22;;;16.20;99.90;;;;;;5108750;28;20028;-73
2022/04/30 04:12:17;;;;;;;13.00;5.13;;;16.20;99.90;;;;;;5109051;28;20023;-73
2022/04/30 04:17:40;;;;;;;;;;;16.20;99.90;;;;;;5109759;28;20031;-73
2022/04/30 04:20:11;;;;;;;12.50;4.32;;;16.20;99.90;;;;;;5048013;28;1288535;-73
2022/04/30 04:22:37;;;;;;;11.73;4.25;;;16.20;99.90;;;;;;5109669;28;20035;-73
2022/04/30 04:27:54;;;;;;;11.00;4.10;;;16.30;99.90;;;;;;5110548;28;20074;-73
2022/04/30 04:30:24;;;;;;;13.30;4.90;;;16.20;99.90;;;;;;5109924;28;20107;-73
2022/04/30 04:32:50;;;;;;;10.32;3.92;;;16.30;99.90;;;;;;5109313;28;20016;-73
2022/04/30 04:35:16;;;;;;;10.50;4.03;;;16.40;99.90;;;;;;5110032;28;20020;-73
2022/04/30 04:37:43;;;;;;;9.75;3.85;;;16.40;99.90;;;;;;5112075;28;20155;-73
2022/04/30 04:40:10;;;;;;;13.23;4.10;;;16.30;99.90;;;;;;5111131;28;20071;-73
2022/04/30 04:42:36;;;;;;;11.52;3.92;;;16.30;99.90;;;;;;5109527;28;20383;-73
2022/04/30 04:45:03;;;;;;;9.50;4.80;;;16.30;99.90;;;;;;5109249;28;20088;-72
2022/04/30 04:47:29;;;;;;;13.57;4.88;;;16.30;99.90;;;;;;5109859;28;20012;-73
2022/04/30 04:49:55;;;;;;;14.13;4.20;;;16.30;99.90;;;;;;5111213;27;20422;-73
2022/04/30 04:52:22;;;;;;;9.73;4.10;;;16.30;99.90;;;;;;5111285;28;20019;-73
2022/04/30 04:54:48;;;;;;;16.70;4.65;;;16.30;99.90;;;;;;5109548;28;20015;-73
2022/04/30 04:57:15;;;;;;;10.40;4.50;;;16.30;99.90;;;;;;5109290;28;20121;-73
2022/04/30 04:59:41;;;;;;;13.57;3.97;;;16.20;99.90;;;;;;5109514;28;20038;-73
2022/04/30 05:02:07;;;;;;;15.38;5.13;;;16.20;99.90;;;;;;5109673;28;20028;-73
2022/04/30 05:04:33;;;;;;;13.68;4.20;;;16.20;99.90;;;;;;5112853;28;20123;-73
2022/04/30 05:06:59;;;;;;;12.57;4.10;;;16.20;99.90;;;;;;5108413;28;20022;-73
2022/04/30 05:09:28;;;;;;;10.88;4.53;;;16.20;99.90;;;;;;5108866;28;20031;-73
2022/04/30 05:11:54;;;;;;;11.85;4.90;;;16.00;99.90;;;;;;5109150;28;20023;-73
2022/04/30 05:14:20;;;;;;;13.98;5.07;;;15.80;99.90;;;;;;5109250;28;20030;-73
2022/04/30 05:16:47;;;;;;;17.17;5.30;;;15.70;99.90;;;;;;5111833;28;20103;-73
2022/04/30 05:19:13;;;;;;;11.95;5.10;;;15.70;99.90;;;;;;5109875;28;20482;-73
2022/04/30 05:21:38;;;;;;;14.02;4.75;;;15.70;99.90;;;;;;5107959;28;20110;-73
2022/04/30 05:24:05;;;;;;;13.07;4.88;;;15.60;99.90;;;;;;5108736;28;20024;-73
2022/04/30 05:26:32;;;;;;;16.80;5.25;;;15.70;99.90;;;;;;5109191;28;20019;-73
2022/04/30 05:28:58;;;;;;;11.77;4.68;;;15.80;99.90;;;;;;5110290;28;22376;-73
2022/04/30 05:31:24;;;;;;;15.43;4.80;;;15.90;99.90;;;;;;5111172;28;20389;-73
2022/04/30 05:33:50;;;;;;;15.00;5.07;;;16.10;99.90;;;;;;5108947;28;20024;-73
2022/04/30 05:36:16;;;;;;;13.13;5.20;;;16.10;99.90;;;;;;5108106;28;20141;-72
2022/04/30 05:38:42;;;;;;;13.70;5.10;;;16.20;99.90;;;;;;5108836;28;20028;-73
2022/04/30 05:41:07;;;;;;;14.98;5.38;;;16.30;99.90;;;;;;5108629;28;20047;-73
2022/04/30 05:43:33;;;;;;;14.48;5.75;;;16.40;99.90;;;;;;5107880;28;20027;-73
2022/04/30 05:45:59;;;;;;;17.73;4.97;;;16.60;99.90;;;;;;5107315;28;20036;-73
2022/04/30 05:48:24;;;;;;;12.60;4.97;;;16.60;99.90;;;;;;5108689;28;20456;-73
2022/04/30 05:50:51;;;;;;;13.82;5.65;;;16.70;99.90;;;;;;5107846;28;20482;-73
2022/04/30 05:53:17;;;;;;;17.50;5.22;;;16.60;99.90;;;;;;5108477;28;20046;-73
2022/04/30 05:55:43;;;;;;;16.05;4.90;;;16.80;99.90;;;;;;5110761;28;20652;-73
2022/04/30 05:58:08;;;;;;;16.88;5.22;;;16.80;99.90;;;;;;5109786;28;20027;-73
2022/04/30 06:00:34;;;;;;;16.17;4.68;;;16.90;99.90;;;;;;5108518;28;20474;-73
2022/04/30 06:03:00;;;;;;;20.15;5.03;;;16.90;99.90;;;;;;5106879;28;20027;-73
2022/04/30 06:05:26;;;;;;;14.43;4.28;;;17.00;99.90;;;;;;5107799;28;20398;-73
2022/04/30 06:07:53;;;;;;;16.10;4.55;;;17.10;99.90;;;;;;5111149;28;20022;-73
2022/04/30 06:10:19;;;;;;;15.73;4.30;;;17.10;99.90;;;;;;5110019;28;20024;-73
2022/04/30 06:12:45;;;;;;;17.65;4.40;;;17.20;99.90;;;;;;5108266;28;20073;-73
2022/04/30 06:15:11;;;;;;;16.70;4.70;;;17.20;99.90;;;;;;5107963;28;20028;-73
2022/04/30 06:17:37;;;;;;;13.77;5.28;;;17.30;99.90;;;;;;5108625;28;20030;-73
2022/04/30 06:20:02;;;;;;;15.13;5.45;;;17.30;99.90;;;;;;5108147;28;20132;-73
2022/04/30 06:22:28;;;;;;;16.15;5.30;;;17.00;99.90;;;;;;5111088;28;20098;-74
2022/04/30 06:24:54;;;;;;;16.67;5.80;;;16.90;99.90;;;;;;5107641;28;20039;-73
2022/04/30 06:27:20;;;;;;;11.50;4.95;;;16.90;99.90;;;;;;5108527;28;20040;-73
2022/04/30 06:29:46;;;;;;;13.43;4.90;;;16.90;99.90;;;;;;5107915;28;20043;-73
2022/04/30 06:32:12;;;;;;;22.40;5.15;;;16.90;99.90;;;;;;5106722;28;20024;-73
2022/04/30 06:34:39;;;;;;;19.38;5.38;;;17.00;99.90;;;;;;5111044;28;20035;-72
2022/04/30 06:37:05;;;;;;;14.88;5.43;;;17.00;99.90;;;;;;5109972;28;20031;-73
2022/04/30 06:39:31;;;;;;;16.48;5.72;;;17.10;99.90;;;;;;5108098;28;20040;-73
2022/04/30 06:41:56;;;;;;;12.15;4.65;;;17.20;99.90;;;;;;5107861;28;20550;-73
2022/04/30 06:44:22;;;;;;;12.98;4.38;;;17.20;99.90;;;;;;5107975;28;20433;-73
2022/04/30 06:46:48;;;;;;;12.43;4.82;;;17.20;99.90;;;;;;5108809;28;20026;-73
2022/04/30 06:49:13;;;;;;;11.32;4.82;;;17.30;99.90;;;;;;5109024;28;20027;-73
2022/04/30 06:51:39;;;;;;;15.30;5.20;;;17.40;99.90;;;;;;5108046;28;20028;-73
2022/04/30 06:57:07;;;;;;;12.98;5.10;;;17.60;99.90;;;;;;5108146;28;20563;-73
2022/04/30 06:59:37;;;;;;;12.82;5.45;;;17.70;99.90;;;;;;5107575;28;20064;-73
2022/04/30 07:02:11;;;;;;;12.82;5.05;;;17.80;99.90;;;;;;5109482;28;20478;-73
2022/04/30 07:04:39;;;;;;;14.88;4.93;;;17.90;99.90;;;;;;5111165;28;20064;-73
2022/04/30 07:07:05;;;;;;;13.27;4.75;;;18.10;99.90;;;;;;5113320;28;20540;-73
2022/04/30 07:09:33;;;;;;;10.38;4.82;;;18.20;99.90;;;;;;5111564;28;20024;-73
2022/04/30 07:12:04;;;;;;;12.95;4.30;;;18.30;99.90;;;;;;5111326;28;20104;-72
2022/04/30 07:14:37;;;;;;;7.97;4.07;;;18.30;99.90;;;;;;5110054;28;20055;-73
2022/04/30 07:17:14;;;;;;;12.30;4.23;;;18.40;99.90;;;;;;5111560;28;20028;-73
2022/04/30 07:19:40;;;;;;;10.23;4.35;;;18.50;99.90;;;;;;5110780;28;20131;-74
2022/04/30 07:22:09;;;;;;;7.72;4.15;;;18.60;99.90;;;;;;5111824;28;20396;-73
2022/04/30 07:24:36;;;;;;;11.27;4.57;;;18.70;99.90;;;;;;5111427;28;20023;-73
2022/04/30 07:27:06;;;;;;;8.82;4.20;;;18.80;99.90;;;;;;5110997;28;20050;-73
2022/04/30 07:29:32;;;;;;;11.57;3.70;;;18.80;99.90;;;;;;5111328;28;20027;-73
2022/04/30 07:32:00;;;;;;;10.32;3.95;;;18.80;99.90;;;;;;5112122;28;20036;-73
2022/04/30 07:34:27;;;;;;;9.88;3.55;;;18.90;99.90;;;;;;5113318;28;20030;-73
2022/04/30 07:36:53;;;;;;;13.85;4.45;;;18.90;99.90;;;;;;5109910;28;20023;-73
2022/04/30 07:39:18;;;;;;;9.68;3.58;;;18.90;99.90;;;;;;5110630;28;20088;-73
2022/04/30 07:41:44;;;;;;;9.70;4.10;;;19.00;99.90;;;;;;5110607;28;20019;-73
2022/04/30 07:44:10;;;;;;;13.43;4.00;;;19.00;99.90;;;;;;5110702;28;20095;-73
2022/04/30 07:46:37;;;;;;;9.43;3.83;;;19.10;99.90;;;;;;5114120;28;20057;-73
2022/04/30 07:49:03;;;;;;;9.65;3.92;;;19.10;99.90;;;;;;5110705;28;20028;-73
2022/04/30 07:51:41;;;;;;;10.10;3.88;;;19.20;99.90;;;;;;5110578;28;20535;-73
2022/04/30 07:54:08;;;;;;;9.10;3.83;;;19.30;99.90;;;;;;5110664;28;20035;-73
2022/04/30 07:56:34;;;;;;;7.35;3.63;;;19.20;99.90;;;;;;5110557;28;20402;-73
2022/04/30 07:59:00;;;;;;;9.73;4.10;;;19.20;99.90;;;;;;5111479;28;20032;-73
2022/04/30 08:01:25;;;;;;;11.07;4.40;;;19.20;99.90;;;;;;5112594;28;20023;-73
2022/04/30 08:03:51;;;;;;;12.07;3.90;;;19.20;99.90;;;;;;5110149;28;20372;-73
2022/04/30 08:06:17;;;;;;;9.57;3.90;;;19.10;99.90;;;;;;5110607;28;20050;-73
2022/04/30 08:08:42;;;;;;;10.30;3.55;;;19.00;99.70;;;;;;5110355;28;20081;-73
2022/04/30 08:11:08;;;;;;;14.00;3.90;;;19.10;99.90;;;;;;5110414;28;20047;-73
2022/04/30 08:13:35;;;;;;;14.00;4.65;;;19.00;99.90;;;;;;5108711;28;20020;-73
2022/04/30 08:16:01;;;;;;;15.18;4.40;;;19.10;99.90;;;;;;5109909;28;20062;-73
2022/04/30 08:18:27;;;;;;;12.43;4.28;;;19.00;99.90;;;;;;5109816;28;20063;-72
2022/04/30 08:20:53;;;;;;;8.60;3.78;;;19.00;99.90;;;;;;5109761;28;20074;-73
2022/04/30 08:23:19;;;;;;;11.77;3.97;;;19.00;99.90;;;;;;5109958;28;20566;-73
2022/04/30 08:25:45;;;;;;;13.60;4.43;;;19.00;99.90;;;;;;5112557;28;20024;-73
2022/04/30 08:28:11;;;;;;;12.10;3.72;;;19.00;99.90;;;;;;5111258;28;20026;-73
2022/04/30 08:30:37;;;;;;;22.92;10.90;;;19.00;99.90;;;;;;5109303;28;20482;-73
2022/04/30 08:33:02;;;;;;;13.95;7.07;;;19.00;99.90;;;;;;5109885;28;20028;-73
2022/04/30 08:35:28;;;;;;;11.75;4.68;;;19.00;99.90;;;;;;5109547;27;20028;-73
2022/04/30 08:37:54;;;;;;;10.90;4.25;;;19.00;99.90;;;;;;5111658;28;20506;-73
2022/04/30 08:40:20;;;;;;;11.43;4.57;;;19.00;99.90;;;;;;5111613;28;20043;-73
2022/04/30 08:42:46;;;;;;;13.82;5.45;;;19.00;99.90;;;;;;5109409;28;20024;-72
2022/04/30 08:45:12;;;;;;;11.38;4.90;;;19.10;99.90;;;;;;5108778;28;20148;-73
2022/04/30 08:47:42;;;;;;;10.63;4.95;;;19.10;99.90;;;;;;5109810;28;20023;-73
2022/04/30 08:50:12;;;;;;;10.30;5.53;;;19.10;99.90;;;;;;5094315;28;20062;-73
2022/04/30 08:52:38;;;;;;;7.78;4.25;;;19.20;99.90;;;;;;5109286;28;20031;-73
2022/04/30 08:55:05;;;;;;;10.35;4.20;;;19.30;99.90;;;;;;5111195;28;20040;-73
2022/04/30 08:57:31;;;;;;;8.95;5.10;;;19.30;99.70;;;;;;5109203;28;20020;-73
2022/04/30 08:59:58;;;;;;;9.55;5.05;;;19.50;99.30;;;;;;5108774;28;20042;-73
2022/04/30 09:02:25;;;;;;;9.45;4.25;;;19.60;99.80;;;;;;5109427;28;20502;-73
2022/04/30 09:04:51;;;;;;;9.40;4.18;;;19.70;99.00;;;;;;5111405;28;20114;-73
2022/04/30 09:07:20;;;;;;;8.18;3.70;;;19.80;98.50;;;;;;5110269;28;20020;-73
2022/04/30 09:09:57;;;;;;;8.63;3.80;;;19.90;98.50;;;;;;5109048;27;20510;-73
2022/04/30 09:12:23;;;;;;;8.65;3.28;;;20.00;98.70;;;;;;5107881;28;20102;-73
2022/04/30 09:14:50;;;;;;;7.55;3.80;;;20.20;98.50;;;;;;5108146;28;20031;-73
2022/04/30 09:17:16;;;;;;;8.70;4.18;;;20.50;98.60;;;;;;5109498;28;20391;-73
2022/04/30 09:19:48;;;;;;;10.18;3.55;;;20.80;97.90;;;;;;5111429;28;20109;-73
2022/04/30 09:22:15;;;;;;;12.18;3.78;;;21.10;97.60;;;;;;5111759;28;20089;-73
2022/04/30 09:24:50;;;;;;;8.05;3.25;;;21.20;97.20;;;;;;5108103;28;20540;-73
2022/04/30 09:27:17;;;;;;;8.85;3.42;;;21.40;96.00;;;;;;5109288;28;20024;-72
2022/04/30 09:29:44;;;;;;;8.32;4.30;;;21.60;95.60;;;;;;5108198;28;20027;-73
2022/04/30 09:32:21;;;;;;;8.70;3.83;;;21.50;93.70;;;;;;5110175;28;20099;-73
2022/04/30 09:37:42;;;;;;;9.77;3.95;;;21.70;93.80;;;;;;5112187;28;20042;-73
2022/04/30 09:40:28;;;;;;;7.75;3.80;;;21.90;92.40;;;;;;5109258;28;20039;-73
2022/04/30 09:42:54;;;;;;;6.70;3.50;;;22.10;92.90;;;;;;5107704;28;20065;-73
2022/04/30 09:45:31;;;;;;;7.13;3.17;;;22.00;91.70;;;;;;5108457;28;20428;-73
2022/04/30 09:47:58;;;;;;;7.72;3.30;;;22.10;92.60;;;;;;5108337;28;20024;-73
2022/04/30 09:55:59;;;;;;;6.57;3.20;;;22.40;91.50;;;;;;5110364;28;20267;-73
2022/04/30 09:58:27;;;;;;;6.93;3.30;;;22.50;90.90;;;;;;5110064;28;20042;-73
2022/04/30 10:00:58;;;;;;;6.38;3.25;;;22.50;91.10;;;;;;5106940;28;20475;-73
2022/04/30 10:03:30;;;;;;;8.30;3.17;;;22.70;91.30;;;;;;5108495;28;20121;-73
2022/04/30 10:06:06;;;;;;;7.35;3.55;;;22.80;90.00;;;;;;5107599;28;20024;-73
2022/04/30 10:08:42;;;;;;;5.93;2.97;;;23.00;90.20;;;;;;5108102;28;20016;-73
2022/04/30 10:11:33;;;;;;;5.97;3.50;;;23.10;90.20;;;;;;5092195;28;20020;-73
2022/04/30 10:14:31;;;;;;;7.47;3.50;;;23.10;90.10;;;;;;5108894;28;20517;-73
2022/04/30 10:17:12;;;;;;;9.10;3.95;;;23.20;91.80;;;;;;5109001;28;20489;-73
2022/04/30 10:19:39;;;;;;;5.78;2.90;;;23.20;87.80;;;;;;5107554;28;20055;-73
2022/04/30 10:22:16;;;;;;;6.78;3.40;;;23.20;88.80;;;;;;5110091;28;20027;-73
2022/04/30 10:24:48;;;;;;;6.38;3.33;;;22.90;86.80;;;;;;5107868;28;20096;-73
2022/04/30 10:27:16;;;;;;;7.60;3.40;;;22.80;88.40;;;;;;5107600;28;20020;-73
2022/04/30 10:29:54;;;;;;;8.10;3.40;;;22.80;87.70;;;;;;5107279;28;20097;-73
2022/04/30 10:32:29;;;;;;;7.75;4.18;;;22.60;89.40;;;;;;5108129;28;20032;-73
2022/04/30 10:34:55;;;;;;;8.20;3.67;;;22.60;90.60;;;;;;5109926;28;20027;-73
2022/04/30 10:37:35;;;;;;;8.38;3.63;;;22.90;90.70;;;;;;5111329;28;20050;-73
2022/04/30 10:40:10;;;;;;;6.50;3.70;;;23.30;89.50;;;;;;5111317;28;20193;-73
2022/04/30 10:42:45;;;;;;;6.10;3.45;;;23.30;88.50;;;;;;5112250;28;20020;-73
2022/04/30 10:45:15;;;;;;;7.82;3.55;;;23.50;87.30;;;;;;5112453;28;20028;-72
2022/04/30 10:47:54;;;;;;;8.70;4.15;;;23.70;85.80;;;;;;5111828;28;20027;-73
2022/04/30 10:50:21;;;;;;;12.02;3.72;;;23.70;86.90;;;;;;5097201;28;20024;-73
2022/04/30 10:52:48;;;;;;;9.20;3.90;;;23.80;84.30;;;;;;5114087;28;20024;-72
2022/04/30 10:55:16;;;;;;;12.23;3.80;;;24.00;85.60;;;;;;5112803;28;20451;-73
2022/04/30 10:57:45;;;;;;;8.02;3.60;;;24.00;83.30;;;;;;5111605;28;20019;-73
2022/04/30 11:00:12;;;;;;;9.18;3.50;;;23.80;85.20;;;;;;5111378;28;20028;-73
2022/04/30 11:02:39;;;;;;;8.93;3.47;;;23.70;81.10;;;;;;5111664;28;20532;-73
2022/04/30 11:05:16;;;;;;;8.38;3.47;;;23.70;82.50;;;;;;5112010;28;20395;-73
2022/04/30 11:07:42;;;;;;;9.35;3.90;;;23.80;81.90;;;;;;5111022;28;20410;-73
2022/04/30 11:10:09;;;;;;;11.13;3.30;;;23.70;80.90;;;;;;5112154;28;20027;-73
2022/04/30 11:12:34;;;;;;;7.75;3.15;;;23.90;82.90;;;;;;5111179;27;20061;-73
2022/04/30 11:15:00;;;;;;;7.97;3.80;;;24.10;81.70;;;;;;5110972;28;20020;-73
2022/04/30 11:17:26;;;;;;;8.18;4.05;;;24.10;82.30;;;;;;5111607;28;20058;-73
2022/04/30 11:19:55;;;;;;;12.60;3.90;;;24.30;81.50;;;;;;5112406;28;20092;-73
2022/04/30 11:22:22;;;;;;;7.05;3.83;;;24.20;80.10;;;;;;5111618;28;20165;-73
2022/04/30 11:24:48;;;;;;;14.60;4.47;;;24.20;82.60;;;;;;5110800;28;20491;-73
2022/04/30 11:27:14;;;;;;;8.52;3.53;;;24.50;82.10;;;;;;5111248;28;20099;-73
2022/04/30 11:29:51;;;;;;;8.10;3.90;;;24.30;79.60;;;;;;5111134;28;20204;-73
2022/04/30 11:32:22;;;;;;;9.13;4.03;;;24.30;77.60;;;;;;5096722;28;20069;-73
2022/04/30 11:34:49;;;;;;;11.90;4.20;;;24.20;78.30;;;;;;5113305;28;20153;-73
2022/04/30 11:37:15;;;;;;;7.30;4.10;;;24.60;80.40;;;;;;5111962;27;20154;-73
2022/04/30 11:39:40;;;;;;;6.70;3.30;;;24.40;78.60;;;;;;5110198;28;20035;-73
2022/04/30 11:42:07;;;;;;;8.50;3.80;;;24.50;80.00;;;;;;5110757;28;20012;-73
2022/04/30 11:44:32;;;;;;;10.40;3.70;;;24.80;79.70;;;;;;5111022;28;20034;-73
2022/04/30 11:46:58;;;;;;;9.57;4.00;;;24.80;81.00;;;;;;5112956;28;20024;-73
2022/04/30 11:49:26;;;;;;;9.77;3.60;;;24.70;77.60;;;;;;5112516;28;20042;-73
2022/04/30 11:51:55;;;;;;;8.07;3.50;;;24.90;79.90;;;;;;5110550;28;20008;-73
2022/04/30 11:54:23;;;;;;;6.80;3.53;;;25.10;76.90;;;;;;5110065;28;20152;-73
2022/04/30 11:56:50;;;;;;;11.35;3.83;;;25.20;76.00;;;;;;5110362;28;20026;-73
2022/04/30 11:59:16;;;;;;;7.50;3.35;;;25.20;75.30;;;;;;5110236;28;20043;-73
2022/04/30 12:01:42;;;;;;;8.98;3.55;;;25.10;74.80;;;;;;5113661;28;20103;-73
2022/04/30 12:04:15;;;;;;;8.45;3.60;;;25.30;74.60;;;;;;5111033;28;20028;-73
2022/04/30 12:06:44;;;;;;;8.18;3.72;;;25.40;71.60;;;;;;5110537;28;20454;-73
2022/04/30 12:09:20;;;;;;;8.50;3.75;;;25.50;74.40;;;;;;5111363;28;20034;-73
2022/04/30 12:11:51;;;;;;;7.35;3.40;;;25.60;74.40;;;;;;5110355;28;20475;-73
2022/04/30 12:14:18;;;;;;;7.10;3.53;;;25.50;72.90;;;;;;5110167;28;20036;-73
2022/04/30 12:16:45;;;;;;;6.93;3.38;;;25.30;72.00;;;;;;5113028;28;20042;-73
2022/04/30 12:24:58;;;;;;;9.50;3.72;;;25.80;73.90;;;;;;5110173;28;20054;-73
2022/04/30 12:27:24;;;;;;;6.88;3.20;;;25.60;71.10;;;;;;5110294;28;20028;-73
2022/04/30 12:30:12;;;;;;;12.07;3.80;;;25.90;72.50;;;;;;5109741;28;20028;-73
2022/04/30 12:33:01;;;;;;;6.57;3.58;;;25.70;72.50;;;;;;5109723;28;20048;-73
2022/04/30 12:35:32;;;;;;;6.57;3.35;;;25.80;69.80;;;;;;5096357;28;20028;-73
2022/04/30 12:38:08;;;;;;;7.57;3.20;;;25.50;70.40;;;;;;5110844;28;20604;-73
2022/04/30 12:40:36;;;;;;;8.10;3.08;;;25.60;72.80;;;;;;5113225;28;20087;-73
2022/04/30 12:43:03;;;;;;;10.18;3.55;;;26.00;69.50;;;;;;5109808;28;20028;-73
2022/04/30 12:45:31;;;;;;;9.15;3.10;;;26.20;66.80;;;;;;5109859;27;20026;-73
2022/04/30 12:47:57;;;;;;;4.97;3.03;;;26.40;70.70;;;;;;5109776;28;20038;-73
2022/04/30 12:50:24;;;;;;;8.85;3.55;;;26.40;67.90;;;;;;5109165;28;20069;-73
2022/04/30 12:52:51;;;;;;;6.32;3.08;;;26.20;69.60;;;;;;5111695;28;20032;-73
2022/04/30 12:55:19;;;;;;;10.73;3.40;;;26.20;69.60;;;;;;5110533;28;20389;-73
2022/04/30 12:57:46;;;;;;;7.82;3.28;;;25.70;67.20;;;;;;5109021;28;20040;-73
2022/04/30 13:00:13;;;;;;;9.10;3.28;;;25.70;69.30;;;;;;5108341;28;20046;-73
2022/04/30 13:02:40;;;;;;;8.48;3.28;;;25.50;71.00;;;;;;5109290;28;20020;-73
2022/04/30 13:05:10;;;;;;;7.95;3.50;;;25.30;68.20;;;;;;5109112;28;20092;-73
2022/04/30 13:07:40;;;;;;;9.35;3.30;;;25.50;68.10;;;;;;5108706;28;20073;-73
2022/04/30 13:15:38;;;;;;;13.85;4.30;;;25.40;81.80;;;;;;5109026;28;20112;-73
2022/04/30 13:18:04;;;;;;;15.38;4.40;;;25.60;83.80;;;;;;5109191;27;20027;-73
2022/04/30 13:20:30;;;;;;;10.45;4.32;;;25.30;83.70;;;;;;5108557;28;20044;-73
2022/04/30 13:22:59;;;;;;;12.65;4.05;;;25.00;82.30;;;;;;5110568;28;20375;-73
2022/04/30 13:25:28;;;;;;;10.98;4.72;;;25.20;84.70;;;;;;5110982;28;20398;-74
2022/04/30 13:27:55;;;;;;;13.73;5.30;;;25.60;80.90;;;;;;5108994;28;20032;-73